Beaver, Kentucky
Current Conditions -  °F | °C
As of 1:15 PM on Thursday 23 Oct 2014 (Local Time) from KPBX Reporting Station
Overcast Overcast  
Wind Chill: 51°   Ceiling: 2500
Heat Index: 51°   Visibility: 10mi
Dew Point: 40°   Wind: 5mph
Humidity: 68%   Direction: 40°NE
Pressure: 30.2"   Gusts: NA
Location:  37.4°N, 82.65°W
Report Text: KPBX 231715Z AUTO 04004KT 10SM OVC025 10/05 A3020 RMK AO2 T01030047
Loading
Personal Weather Stations






























Interactive Weather Map
Tropical Storm Tracking
New forecast layout! Learn more

10-Day Weather Forecast

Advertisements
Track Severe Weather on mobile